Etusivu
METAR-TAF:

METAR-TAF

Lentoasemat :

Galesburg Municipal Airport

Galesburg, Illinois, Yhdysvallat

Leveyspiiri: 40-56-17N, Pituuspiiri: 090-25-52W, korkeus merenpinnasta: 233 m

Tämänhetkinen sää

Tämä raportti tehtiin 31 minuuttia sitten, kello 20.35 UTC
Tuuli 11 kn etelästä puuskistuen 16 kn:hen
Lämpötila 32°C
Kosteus 56%
Ilmanpaine 1008 hPa
Näkyvyys: 16.1 km
Hajonneita pilviä 4000 ft:n korkeudessa

METAR: KGBG 092035Z AUTO 18011G16KT 10SM BKN040 32/22 A2978 RMK AO2 T03190219

Aika: 16:06 (21:06 UTC)


TAF: puuttuu

Säähavainnot ja -ennusteet yli 4000 lentoasemalta (METAR- ja TAF-raportit).

Käytössä olevat sääasemat on merkitty karttaan keltaisilla ja punaisilla pisteillä.

Aseta hiiri pisteen päälle nähdäksesi sääaseman nimen.

Klikkaa sitten nähdäksesi säähavainnot ja -ennusteet.

Kartan vaihtaminen: klikkaa mustalla rastilla varustettuja vihreitä pisteitä, niin voit zoomata sisään; viivalla varustettua vihreää pistettä, niin voit zoomata ulos tai vihreitä nuolia, niin pääset viereisille kartoille.


METAR-TAF: